Time;durP1;ratioP1;P1;durP2;ratioP2;P2;SDS_P1;SDS_P2;PMS_P1;PMS_P2;Temp;Humidity;BMP_temperature;BMP_pressure;BME280_temperature;BME280_humidity;BME280_pressure;Samples;Min_cycle;Max_cycle;Signal;HPM_P1;HPM_P2
2023/01/24 00:00:40;;;;;;;9.57;5.55;;;4.10;99.90;;;;;;6220216;23;20004;-76
2023/01/24 00:03:06;;;;;;;11.82;6.72;;;4.10;99.90;;;;;;6220276;23;20303;-77
2023/01/24 00:05:35;;;;;;;10.88;6.22;;;4.10;99.90;;;;;;6220360;23;19997;-76
2023/01/24 00:08:01;;;;;;;13.25;6.97;;;4.00;99.90;;;;;;6221811;23;20008;-76
2023/01/24 00:10:26;;;;;;;12.45;6.72;;;4.00;99.90;;;;;;6220141;23;20011;-77
2023/01/24 00:12:52;;;;;;;12.07;6.45;;;4.00;99.90;;;;;;6222160;23;20008;-77
2023/01/24 00:15:18;;;;;;;13.43;6.72;;;4.00;99.90;;;;;;6222020;23;20004;-77
2023/01/24 00:17:43;;;;;;;10.45;5.78;;;4.00;99.90;;;;;;6221991;23;20015;-77
2023/01/24 00:20:10;;;;;;;11.32;5.72;;;4.00;99.90;;;;;;6222047;23;20426;-77
2023/01/24 00:22:35;;;;;;;10.75;5.60;;;4.00;99.90;;;;;;6219632;23;20005;-77
2023/01/24 00:25:01;;;;;;;14.05;6.68;;;4.00;99.90;;;;;;6220164;23;20020;-78
2023/01/24 00:27:26;;;;;;;13.82;7.07;;;3.90;99.90;;;;;;6220690;23;20004;-78
2023/01/24 00:29:52;;;;;;;12.68;6.32;;;3.90;99.90;;;;;;6220313;23;20048;-78
2023/01/24 00:32:18;;;;;;;13.18;6.63;;;3.90;99.90;;;;;;6222154;23;20009;-78
2023/01/24 00:34:43;;;;;;;12.68;6.82;;;3.90;99.90;;;;;;6222091;23;20011;-78
2023/01/24 00:37:09;;;;;;;14.05;6.72;;;3.90;99.90;;;;;;6221886;23;20005;-77
2023/01/24 00:39:35;;;;;;;12.90;6.82;;;3.80;99.90;;;;;;6221728;23;20008;-77
2023/01/24 00:42:00;;;;;;;12.75;6.55;;;3.80;99.90;;;;;;6222023;23;20008;-77
2023/01/24 00:44:26;;;;;;;13.13;6.72;;;3.80;99.90;;;;;;6221941;23;19997;-77
2023/01/24 00:46:52;;;;;;;12.27;6.57;;;3.80;99.90;;;;;;6221637;23;20020;-77
2023/01/24 00:49:18;;;;;;;12.50;6.78;;;3.80;99.90;;;;;;6221834;23;20026;-77
2023/01/24 00:51:44;;;;;;;12.27;7.03;;;3.70;99.90;;;;;;6222225;23;20001;-77
2023/01/24 00:54:10;;;;;;;12.10;6.05;;;3.70;99.90;;;;;;6219946;23;20011;-77
2023/01/24 00:56:35;;;;;;;12.48;5.90;;;3.80;99.90;;;;;;6221752;23;20452;-77
2023/01/24 00:59:01;;;;;;;11.88;6.10;;;3.80;99.90;;;;;;6220258;23;20004;-77
2023/01/24 01:01:27;;;;;;;12.73;6.47;;;3.80;99.90;;;;;;6221723;23;20071;-79
2023/01/24 01:03:57;;;;;;;10.13;5.70;;;3.80;99.90;;;;;;6220366;23;20008;-79
2023/01/24 01:06:24;;;;;;;10.27;5.43;;;3.80;99.90;;;;;;6221543;23;20000;-78
2023/01/24 01:08:49;;;;;;;10.65;5.72;;;3.80;99.90;;;;;;6219963;23;20031;-78
2023/01/24 01:11:15;;;;;;;10.52;6.18;;;3.70;99.90;;;;;;6221327;23;20004;-78
2023/01/24 01:13:41;;;;;;;9.98;5.68;;;3.70;99.90;;;;;;6221498;23;20442;-78
2023/01/24 01:16:12;;;;;;;9.13;5.38;;;3.70;99.90;;;;;;6221679;23;20035;-78
2023/01/24 01:18:38;;;;;;;8.05;5.03;;;3.70;99.90;;;;;;6219354;23;20005;-78
2023/01/24 01:21:05;;;;;;;8.90;5.35;;;3.70;99.90;;;;;;6221704;23;20007;-78
2023/01/24 01:23:32;;;;;;;8.70;4.95;;;3.60;99.90;;;;;;6219698;23;20107;-78
2023/01/24 01:26:02;;;;;;;9.60;5.43;;;3.60;99.90;;;;;;6221014;23;20001;-78
2023/01/24 01:28:29;;;;;;;7.85;4.65;;;3.60;99.90;;;;;;6221326;23;20005;-77
2023/01/24 01:30:55;;;;;;;7.97;4.63;;;3.60;99.90;;;;;;6221010;23;20088;-78
2023/01/24 01:33:21;;;;;;;7.88;4.65;;;3.60;99.90;;;;;;6221253;23;20010;-78
2023/01/24 01:35:48;;;;;;;7.18;4.50;;;3.60;99.90;;;;;;6220122;23;20015;-78
2023/01/24 01:38:14;;;;;;;6.45;4.25;;;3.60;99.90;;;;;;6221281;23;20004;-77
2023/01/24 01:40:40;;;;;;;7.82;4.35;;;3.70;99.90;;;;;;6219455;23;20001;-77
2023/01/24 01:43:14;;;;;;;8.23;5.25;;;3.60;99.90;;;;;;6221340;23;20008;-77
2023/01/24 01:45:48;;;;;;;7.18;4.80;;;3.60;99.90;;;;;;6221407;23;20118;-77
2023/01/24 01:48:33;;;;;;;8.63;4.38;;;3.60;99.90;;;;;;6219771;23;20005;-77
2023/01/24 01:51:02;;;;;;;6.03;3.70;;;3.60;99.90;;;;;;6220016;23;20004;-78
2023/01/24 01:53:34;;;;;;;6.45;4.13;;;3.60;99.90;;;;;;6221244;23;20496;-78
2023/01/24 01:56:09;;;;;;;7.68;4.82;;;3.60;99.90;;;;;;6220645;23;20001;-78
2023/01/24 01:58:35;;;;;;;8.13;4.93;;;3.50;99.90;;;;;;6220888;23;20084;-78
2023/01/24 02:01:02;;;;;;;8.48;4.20;;;3.60;99.90;;;;;;6219669;23;20441;-77
2023/01/24 02:03:39;;;;;;;7.50;4.65;;;3.60;99.90;;;;;;6220754;23;20448;-77
2023/01/24 02:06:12;;;;;;;7.40;4.28;;;3.50;99.90;;;;;;6220575;23;19996;-77
2023/01/24 02:08:39;;;;;;;7.78;4.68;;;3.50;99.90;;;;;;6219131;23;20009;-77
2023/01/24 02:16:01;;;;;;;6.78;4.13;;;3.60;99.90;;;;;;6220643;23;20020;-78
2023/01/24 02:16:36;;;;;;;6.80;4.05;;;3.60;99.90;;;;;;6220280;23;20070;-77
2023/01/24 02:19:02;;;;;;;8.32;4.93;;;3.60;99.90;;;;;;6220770;23;20025;-77
2023/01/24 02:21:28;;;;;;;8.20;4.32;;;3.60;99.90;;;;;;6220833;23;19996;-77
2023/01/24 02:24:11;;;;;;;7.65;4.72;;;3.60;99.90;;;;;;6220266;23;20299;-78
2023/01/24 02:26:38;;;;;;;6.75;4.28;;;3.60;99.90;;;;;;6219487;23;20079;-77
2023/01/24 02:29:06;;;;;;;6.05;4.20;;;3.60;99.90;;;;;;6220342;23;20100;-78
2023/01/24 02:31:57;;;;;;;6.15;3.95;;;3.70;99.90;;;;;;6219127;23;20050;-77
2023/01/24 02:34:23;;;;;;;5.78;3.75;;;3.70;99.90;;;;;;6219128;23;20059;-77
2023/01/24 02:36:56;;;;;;;7.13;4.22;;;3.60;99.90;;;;;;6220637;23;20003;-77
2023/01/24 02:39:28;;;;;;;6.03;3.88;;;3.60;99.90;;;;;;6220537;23;20004;-78
2023/01/24 02:42:00;;;;;;;7.15;4.40;;;3.60;99.90;;;;;;6220718;23;20044;-78
2023/01/24 02:44:36;;;;;;;7.13;4.80;;;3.60;99.90;;;;;;6220767;23;20001;-77
2023/01/24 02:47:03;;;;;;;6.30;4.55;;;3.60;99.90;;;;;;6220615;23;20457;-78
2023/01/24 02:49:28;;;;;;;7.68;5.03;;;3.60;99.90;;;;;;6220736;23;20004;-78
2023/01/24 02:54:39;;;;;;;7.43;4.68;;;3.70;99.90;;;;;;6220146;23;20084;-78
2023/01/24 02:59:49;;;;;;;7.25;4.60;;;3.60;99.90;;;;;;6220476;23;20020;-78
2023/01/24 03:02:15;;;;;;;7.13;4.28;;;3.60;99.90;;;;;;6219164;23;20009;-79
2023/01/24 03:04:40;;;;;;;8.18;5.13;;;3.70;99.90;;;;;;6218818;23;20477;-78
2023/01/24 03:07:06;;;;;;;10.13;5.90;;;3.60;99.90;;;;;;6220689;23;20000;-78
2023/01/24 03:09:35;;;;;;;8.25;5.10;;;3.70;99.90;;;;;;6218341;23;20031;-78
2023/01/24 03:36:40;;;;;;;9.40;5.72;;;3.50;99.90;;;;;;6219918;23;20054;-76
2023/01/24 03:41:54;;;;;;;9.00;5.03;;;3.50;99.90;;;;;;6221096;23;20031;-78
2023/01/24 03:44:19;;;;;;;8.88;4.93;;;3.50;99.90;;;;;;6220994;23;20001;-78
2023/01/24 03:46:45;;;;;;;9.32;5.63;;;3.50;99.90;;;;;;6222305;23;20076;-76
2023/01/24 03:49:11;;;;;;;10.55;6.72;;;3.60;99.90;;;;;;6220643;23;20028;-79
2023/01/24 03:54:21;;;;;;;8.55;5.65;;;3.50;99.90;;;;;;6221913;23;20040;-75
2023/01/24 03:56:47;;;;;;;11.02;5.47;;;3.50;99.90;;;;;;6222654;23;20365;-80
2023/01/24 03:59:13;;;;;;;10.85;6.22;;;3.50;99.90;;;;;;6222181;23;20000;-80
2023/01/24 04:01:38;;;;;;;9.15;6.07;;;3.40;99.90;;;;;;6220788;23;20008;-80
2023/01/24 04:04:04;;;;;;;8.88;5.07;;;3.40;99.90;;;;;;6220841;23;20008;-77
2023/01/24 04:06:30;;;;;;;9.60;5.72;;;3.40;99.90;;;;;;6220414;23;20064;-79
2023/01/24 04:08:55;;;;;;;10.38;6.10;;;3.40;99.90;;;;;;6221703;23;20009;-77
2023/01/24 04:11:21;;;;;;;9.65;6.15;;;3.50;99.90;;;;;;6222101;23;20015;-77
2023/01/24 04:13:47;;;;;;;10.07;5.85;;;3.50;99.90;;;;;;6222204;23;20063;-80
2023/01/24 04:16:14;;;;;;;9.45;6.00;;;3.50;99.90;;;;;;6222145;23;20337;-80
2023/01/24 04:18:40;;;;;;;10.75;6.68;;;3.50;99.90;;;;;;6220079;23;20012;-77
2023/01/24 04:21:06;;;;;;;8.40;6.38;;;3.50;99.90;;;;;;6220566;23;20004;-80
2023/01/24 04:23:32;;;;;;;11.05;6.47;;;3.40;99.90;;;;;;6221758;23;20485;-80
2023/01/24 04:25:59;;;;;;;9.90;5.90;;;3.40;99.90;;;;;;6221979;23;19997;-80
2023/01/24 04:28:25;;;;;;;9.75;6.47;;;3.40;99.90;;;;;;6221788;23;20449;-77
2023/01/24 04:30:59;;;;;;;9.20;5.68;;;3.50;99.90;;;;;;6221843;23;20008;-77
2023/01/24 04:33:25;;;;;;;;;;;3.40;99.90;;;;;;6221013;23;20004;-80
2023/01/24 04:35:50;;;;;;;7.20;4.68;;;3.40;99.90;;;;;;6220392;23;19907;-78
2023/01/24 04:38:16;;;;;;;8.98;5.65;;;3.50;99.90;;;;;;6220456;23;20016;-77
2023/01/24 04:40:42;;;;;;;8.82;5.55;;;3.50;99.90;;;;;;6221517;23;20001;-77
2023/01/24 04:43:07;;;;;;;8.43;5.45;;;3.50;99.90;;;;;;6220150;23;20004;-78
2023/01/24 04:45:33;;;;;;;10.00;5.78;;;3.50;99.90;;;;;;6219797;23;20005;-78
2023/01/24 04:47:59;;;;;;;11.13;6.22;;;3.50;99.90;;;;;;6221552;23;20004;-81
2023/01/24 04:50:24;;;;;;;12.38;6.47;;;3.50;99.90;;;;;;6221821;23;20001;-80
2023/01/24 04:52:50;;;;;;;9.43;6.38;;;3.50;99.90;;;;;;6219823;23;20011;-80
2023/01/24 04:55:16;;;;;;;10.35;6.57;;;3.50;99.90;;;;;;6221384;23;20080;-77
2023/01/24 04:57:42;;;;;;;11.30;6.88;;;3.50;99.90;;;;;;6220296;23;20016;-78
2023/01/24 05:00:09;;;;;;;11.27;6.97;;;3.60;99.90;;;;;;6220073;23;20058;-78
2023/01/24 05:02:37;;;;;;;12.25;7.28;;;3.60;99.90;;;;;;6221616;23;20307;-78
2023/01/24 05:05:03;;;;;;;12.45;7.63;;;3.50;99.90;;;;;;6219923;23;20011;-80
2023/01/24 05:07:29;;;;;;;11.93;6.85;;;3.40;99.90;;;;;;6221673;23;20434;-80
2023/01/24 05:09:58;;;;;;;11.00;6.35;;;3.40;99.90;;;;;;6219714;23;20055;-80
2023/01/24 05:12:24;;;;;;;11.43;7.00;;;3.40;99.90;;;;;;6220131;23;20009;-80
2023/01/24 05:14:49;;;;;;;11.25;6.60;;;3.50;99.90;;;;;;6221878;23;20098;-80
2023/01/24 05:17:15;;;;;;;10.57;6.43;;;3.50;99.90;;;;;;6221516;23;20012;-80
2023/01/24 05:19:43;;;;;;;9.05;5.97;;;3.50;99.90;;;;;;6219995;23;20000;-80
2023/01/24 05:22:08;;;;;;;11.23;6.70;;;3.50;99.90;;;;;;6221550;23;20003;-80
2023/01/24 05:24:34;;;;;;;10.38;6.03;;;3.50;99.90;;;;;;6219641;23;20442;-78
2023/01/24 05:27:00;;;;;;;11.45;6.60;;;3.50;99.90;;;;;;6221515;23;20098;-78
2023/01/24 05:29:25;;;;;;;10.15;6.40;;;3.50;99.90;;;;;;6219832;23;20044;-79
2023/01/24 05:31:51;;;;;;;10.38;6.18;;;3.60;99.90;;;;;;6221255;23;20009;-78
2023/01/24 05:34:17;;;;;;;10.93;6.53;;;3.60;99.90;;;;;;6219691;23;20001;-79
2023/01/24 05:36:42;;;;;;;9.80;6.70;;;3.50;99.90;;;;;;6219578;23;20000;-78
2023/01/24 05:39:08;;;;;;;12.02;6.78;;;3.50;99.90;;;;;;6221148;23;20004;-78
2023/01/24 05:41:34;;;;;;;9.88;6.63;;;3.50;99.90;;;;;;6221294;23;19997;-78
2023/01/24 05:44:00;;;;;;;11.90;7.05;;;3.60;99.90;;;;;;6219576;23;20422;-77
2023/01/24 05:46:25;;;;;;;10.23;5.85;;;3.50;99.90;;;;;;6221165;23;19997;-79
2023/01/24 05:48:52;;;;;;;10.68;6.47;;;3.60;99.90;;;;;;6221228;23;20011;-78
2023/01/24 05:51:21;;;;;;;12.35;7.35;;;3.60;99.90;;;;;;6220945;23;20443;-79
2023/01/24 05:53:47;;;;;;;10.32;6.30;;;3.60;99.90;;;;;;6220929;23;20005;-79
2023/01/24 05:56:17;;;;;;;11.38;6.75;;;3.60;99.90;;;;;;6219650;23;20007;-79
2023/01/24 05:58:45;;;;;;;11.45;7.13;;;3.60;99.90;;;;;;6220884;23;20008;-79
2023/01/24 06:01:18;;;;;;;11.05;6.82;;;3.60;99.90;;;;;;6219859;23;20001;-79
2023/01/24 06:03:46;;;;;;;12.02;7.13;;;3.50;99.90;;;;;;6220472;23;19997;-79
2023/01/24 06:06:14;;;;;;;12.68;8.10;;;3.50;99.90;;;;;;6219666;23;20052;-79
2023/01/24 06:08:40;;;;;;;11.93;7.13;;;3.50;99.90;;;;;;6220620;23;20015;-79
2023/01/24 06:11:12;;;;;;;12.48;6.85;;;3.50;99.90;;;;;;6220779;23;20012;-80
2023/01/24 06:13:38;;;;;;;10.65;6.68;;;3.40;99.90;;;;;;6219495;23;20058;-80
2023/01/24 06:16:05;;;;;;;12.93;7.10;;;3.40;99.90;;;;;;6220747;23;20033;-79
2023/01/24 06:18:31;;;;;;;12.25;6.55;;;3.40;99.90;;;;;;6218939;23;20020;-80
2023/01/24 06:20:57;;;;;;;12.35;7.45;;;3.50;99.90;;;;;;6220752;23;20004;-79
2023/01/24 06:23:27;;;;;;;10.68;6.28;;;3.50;99.90;;;;;;6220647;23;20307;-81
2023/01/24 06:26:01;;;;;;;10.82;6.90;;;3.50;99.90;;;;;;6220555;23;20031;-82
2023/01/24 06:28:27;;;;;;;12.52;7.82;;;3.50;99.90;;;;;;6218960;23;20016;-78
2023/01/24 06:31:06;;;;;;;10.73;6.53;;;3.50;99.90;;;;;;6220755;23;20000;-79
2023/01/24 06:33:52;;;;;;;14.57;8.25;;;3.50;99.90;;;;;;6221193;23;20001;-79
2023/01/24 06:36:33;;;;;;;11.10;6.78;;;3.50;99.90;;;;;;6220700;23;20004;-79
2023/01/24 06:38:59;;;;;;;11.07;7.10;;;3.50;99.90;;;;;;6218987;23;20005;-79
2023/01/24 06:41:25;;;;;;;11.98;6.97;;;3.50;99.90;;;;;;6219281;23;20007;-80
2023/01/24 06:43:51;;;;;;;12.27;7.05;;;3.40;99.90;;;;;;6220712;23;20042;-79
2023/01/24 06:46:17;;;;;;;12.35;6.65;;;3.40;99.90;;;;;;6219138;23;20449;-79
2023/01/24 06:48:44;;;;;;;11.85;7.05;;;3.40;99.90;;;;;;6220488;23;20186;-78
2023/01/24 06:51:14;;;;;;;10.38;6.15;;;3.50;99.90;;;;;;6220726;23;20449;-78
2023/01/24 06:53:40;;;;;;;11.18;6.78;;;3.50;99.90;;;;;;6218985;23;20004;-78
2023/01/24 06:56:07;;;;;;;12.35;7.78;;;3.50;99.90;;;;;;6219325;23;20444;-79
2023/01/24 06:58:33;;;;;;;12.40;7.40;;;3.50;99.90;;;;;;6220460;23;20005;-78
2023/01/24 07:00:58;;;;;;;11.40;7.35;;;3.40;99.90;;;;;;6219419;23;20005;-79
2023/01/24 07:03:24;;;;;;;13.00;7.50;;;3.50;99.90;;;;;;6220671;23;20008;-79
2023/01/24 07:05:49;;;;;;;11.70;7.13;;;3.40;99.90;;;;;;6220745;23;20472;-79
2023/01/24 07:08:17;;;;;;;11.48;7.03;;;3.40;99.90;;;;;;6219289;23;20008;-79
2023/01/24 07:10:43;;;;;;;13.10;7.03;;;3.40;99.90;;;;;;6220471;23;20012;-78
2023/01/24 07:13:08;;;;;;;12.95;7.40;;;3.40;99.90;;;;;;6220248;23;20004;-78
2023/01/24 07:15:34;;;;;;;11.45;6.95;;;3.40;99.90;;;;;;6218291;23;20004;-78
2023/01/24 07:18:12;;;;;;;12.55;6.88;;;3.40;99.90;;;;;;6218173;23;20009;-80
2023/01/24 07:20:39;;;;;;;13.07;7.25;;;3.40;99.90;;;;;;6220168;23;20004;-79
2023/01/24 07:23:04;;;;;;;11.60;6.97;;;3.50;99.90;;;;;;6220483;23;19996;-78
2023/01/24 07:25:32;;;;;;;10.82;6.50;;;3.40;99.90;;;;;;6218853;23;20426;-80
2023/01/24 07:27:58;;;;;;;11.75;6.95;;;3.50;99.90;;;;;;6217690;23;20004;-80
2023/01/24 07:30:23;;;;;;;11.40;6.55;;;3.50;99.90;;;;;;6219782;23;20416;-79
2023/01/24 07:32:49;;;;;;;11.32;7.13;;;3.60;99.90;;;;;;6218668;23;20012;-79
2023/01/24 07:35:18;;;;;;;11.20;6.30;;;3.50;99.90;;;;;;6219477;23;20000;-79
2023/01/24 07:37:43;;;;;;;13.15;7.35;;;3.50;99.90;;;;;;6219907;23;20005;-78
2023/01/24 07:40:10;;;;;;;12.35;6.70;;;3.50;99.90;;;;;;6219512;23;20000;-77
2023/01/24 07:42:35;;;;;;;13.00;7.28;;;3.50;99.90;;;;;;6217653;23;20023;-77
2023/01/24 07:45:01;;;;;;;13.23;8.02;;;3.50;99.90;;;;;;6219894;23;20318;-77
2023/01/24 07:47:27;;;;;;;12.02;7.30;;;3.50;99.90;;;;;;6220120;23;20008;-78
2023/01/24 07:49:53;;;;;;;12.52;7.50;;;3.50;99.90;;;;;;6216401;23;20012;-77
2023/01/24 07:52:18;;;;;;;10.45;7.10;;;3.50;99.90;;;;;;6218032;23;20005;-74
2023/01/24 07:54:44;;;;;;;12.68;8.02;;;3.60;99.90;;;;;;6219599;23;20004;-72
2023/01/24 07:57:09;;;;;;;12.70;7.70;;;3.60;99.90;;;;;;6220045;23;20004;-72
2023/01/24 07:59:35;;;;;;;11.15;6.55;;;3.60;99.90;;;;;;6220446;23;20070;-79
2023/01/24 08:02:01;;;;;;;12.07;6.97;;;3.60;99.90;;;;;;6220208;23;20003;-80
2023/01/24 08:04:26;;;;;;;11.23;6.47;;;3.60;99.90;;;;;;6220420;23;20000;-80
2023/01/24 08:09:36;;;;;;;13.00;7.05;;;3.60;99.90;;;;;;6219934;23;20007;-78
2023/01/24 08:12:02;;;;;;;13.57;7.10;;;3.50;99.90;;;;;;6220325;23;20028;-73
2023/01/24 08:14:27;;;;;;;12.73;7.80;;;3.50;99.90;;;;;;6220248;23;20072;-73
2023/01/24 08:16:53;;;;;;;14.70;8.32;;;3.50;99.90;;;;;;6219591;23;20000;-73
2023/01/24 08:19:18;;;;;;;12.70;7.05;;;3.50;99.90;;;;;;6220399;23;19997;-73
2023/01/24 08:21:44;;;;;;;12.43;7.15;;;3.50;99.90;;;;;;6218604;23;20390;-73
2023/01/24 08:24:10;;;;;;;11.55;7.28;;;3.50;99.90;;;;;;6219973;23;20004;-73
2023/01/24 08:26:35;;;;;;;15.65;8.45;;;3.60;99.90;;;;;;6218247;23;20001;-73
2023/01/24 08:29:01;;;;;;;12.93;7.13;;;3.60;99.90;;;;;;6221569;23;20442;-73
2023/01/24 08:31:26;;;;;;;11.10;7.10;;;3.60;99.90;;;;;;6221821;23;20000;-77
2023/01/24 08:33:52;;;;;;;15.70;7.80;;;3.60;99.90;;;;;;6222156;23;20004;-81
2023/01/24 08:36:23;;;;;;;14.63;7.57;;;3.60;99.90;;;;;;6216892;23;20011;-78
2023/01/24 08:38:49;;;;;;;14.20;7.70;;;3.60;99.90;;;;;;6220626;23;20330;-77
2023/01/24 08:41:15;;;;;;;14.00;7.35;;;3.60;99.90;;;;;;6220145;23;20011;-77
2023/01/24 08:43:42;;;;;;;14.95;8.25;;;3.60;99.90;;;;;;6221944;23;19997;-78
2023/01/24 08:46:07;;;;;;;13.90;7.50;;;3.70;99.90;;;;;;6221762;23;20371;-77
2023/01/24 08:48:33;;;;;;;14.00;7.80;;;3.70;99.90;;;;;;6221617;23;20012;-77
2023/01/24 08:51:01;;;;;;;13.48;7.63;;;3.70;99.90;;;;;;6220237;23;20015;-77
2023/01/24 08:53:28;;;;;;;14.07;8.05;;;3.70;99.90;;;;;;6219686;23;20345;-78
2023/01/24 08:55:54;;;;;;;14.25;7.38;;;3.70;99.90;;;;;;6221366;23;20022;-77
2023/01/24 08:58:20;;;;;;;12.13;6.70;;;3.80;99.90;;;;;;6221741;23;20000;-77
2023/01/24 09:00:46;;;;;;;14.50;7.75;;;3.80;99.90;;;;;;6221826;23;20390;-77
2023/01/24 09:03:17;;;;;;;15.68;7.82;;;3.90;99.90;;;;;;6219928;23;20008;-77
2023/01/24 09:05:43;;;;;;;15.15;8.48;;;3.90;99.90;;;;;;6219940;23;20029;-77
2023/01/24 09:08:09;;;;;;;15.07;8.05;;;3.90;99.90;;;;;;6221652;23;20008;-78
2023/01/24 09:10:35;;;;;;;15.45;8.18;;;4.00;99.90;;;;;;6219683;23;20470;-77
2023/01/24 09:13:04;;;;;;;15.48;8.05;;;3.90;99.90;;;;;;6219868;23;20005;-77
2023/01/24 09:15:31;;;;;;;13.95;7.93;;;4.00;99.90;;;;;;6221520;23;20495;-78
2023/01/24 09:18:01;;;;;;;14.73;7.82;;;4.00;99.90;;;;;;6219627;23;20465;-77
2023/01/24 09:20:26;;;;;;;13.98;8.23;;;4.00;99.90;;;;;;6222183;23;20000;-78
2023/01/24 09:22:52;;;;;;;15.20;8.48;;;3.90;99.90;;;;;;6220030;23;20047;-77
2023/01/24 09:25:17;;;;;;;14.77;7.80;;;3.90;99.90;;;;;;6221320;23;20514;-77
2023/01/24 09:27:43;;;;;;;18.50;8.77;;;4.00;99.90;;;;;;6219951;23;20043;-75
2023/01/24 09:30:10;;;;;;;15.55;8.35;;;4.00;99.90;;;;;;6220933;23;20446;-78
2023/01/24 09:32:36;;;;;;;15.60;8.45;;;4.00;99.90;;;;;;6221325;23;20004;-78
2023/01/24 09:35:02;;;;;;;17.58;8.43;;;4.00;99.90;;;;;;6219840;23;20004;-77
2023/01/24 09:37:28;;;;;;;14.68;7.80;;;4.10;99.90;;;;;;6221263;23;20315;-77
2023/01/24 09:39:55;;;;;;;16.70;8.52;;;4.10;99.90;;;;;;6219048;23;20011;-77
2023/01/24 09:42:39;;;;;;;15.57;8.25;;;4.00;99.90;;;;;;6221431;23;20028;-77
2023/01/24 09:45:18;;;;;;;13.90;7.63;;;4.00;99.90;;;;;;6221314;23;19997;-77
2023/01/24 09:47:49;;;;;;;15.45;9.10;;;4.10;99.90;;;;;;6221484;23;20028;-78
2023/01/24 09:50:25;;;;;;;16.40;8.65;;;4.20;99.90;;;;;;6221372;23;20011;-78
2023/01/24 09:52:56;;;;;;;15.57;8.07;;;4.20;99.90;;;;;;6221278;23;20011;-78
2023/01/24 09:55:30;;;;;;;15.73;8.88;;;4.20;99.90;;;;;;6220984;23;20007;-77
2023/01/24 09:58:11;;;;;;;16.02;8.35;;;4.20;99.90;;;;;;6221097;23;20001;-77
2023/01/24 10:00:38;;;;;;;17.05;8.88;;;4.20;99.90;;;;;;6221278;23;20083;-78
2023/01/24 10:03:16;;;;;;;14.68;7.60;;;4.20;99.90;;;;;;6220952;23;20162;-77
2023/01/24 10:05:48;;;;;;;19.02;10.05;;;4.20;99.90;;;;;;6221141;23;20120;-77
2023/01/24 10:08:42;;;;;;;16.27;9.15;;;4.20;99.90;;;;;;6220873;23;20008;-77
2023/01/24 10:11:31;;;;;;;15.10;8.30;;;4.30;99.90;;;;;;6221127;23;20038;-78
2023/01/24 10:14:05;;;;;;;13.88;7.85;;;4.30;99.90;;;;;;6221063;23;20005;-77
2023/01/24 10:16:37;;;;;;;16.33;8.93;;;4.40;99.90;;;;;;6221018;23;20056;-77
2023/01/24 10:19:21;;;;;;;16.38;8.18;;;4.40;99.90;;;;;;6221514;23;20004;-77
2023/01/24 10:21:58;;;;;;;;;;;4.40;99.90;;;;;;6220006;23;20426;-75
2023/01/24 10:24:30;;;;;;;15.32;8.60;;;4.40;99.90;;;;;;6221128;23;19904;-78
2023/01/24 10:26:56;;;;;;;13.48;7.75;;;4.30;99.90;;;;;;6219151;23;20005;-77
2023/01/24 10:29:28;;;;;;;13.27;7.30;;;4.30;99.90;;;;;;6220633;23;20012;-77
2023/01/24 10:32:03;;;;;;;15.20;7.57;;;4.30;99.90;;;;;;6220698;23;20008;-77
2023/01/24 10:34:37;;;;;;;13.57;7.32;;;4.30;99.90;;;;;;6221187;23;20296;-77
2023/01/24 10:37:19;;;;;;;15.90;8.18;;;4.50;99.90;;;;;;6220836;23;20035;-77
2023/01/24 10:39:44;;;;;;;15.60;8.55;;;4.50;99.90;;;;;;6218821;23;20006;-77
2023/01/24 10:42:26;;;;;;;13.55;7.68;;;4.50;99.90;;;;;;6219008;23;20000;-77
2023/01/24 10:44:55;;;;;;;16.58;8.80;;;4.50;99.90;;;;;;6220684;23;20090;-77
2023/01/24 10:47:50;;;;;;;16.58;9.75;;;4.50;99.90;;;;;;6220732;23;20315;-77
2023/01/24 10:50:18;;;;;;;14.98;8.48;;;4.50;99.90;;;;;;6220748;23;20001;-78
2023/01/24 10:52:46;;;;;;;17.38;9.40;;;4.40;99.90;;;;;;6220108;23;20381;-78
2023/01/24 10:55:34;;;;;;;17.77;10.27;;;4.40;99.90;;;;;;6220429;23;20409;-77
2023/01/24 10:58:03;;;;;;;16.23;8.98;;;4.40;99.90;;;;;;6220636;23;20009;-77
2023/01/24 11:00:40;;;;;;;19.63;9.63;;;4.40;99.90;;;;;;6220741;23;20427;-77
2023/01/24 11:03:27;;;;;;;17.20;9.20;;;4.40;99.90;;;;;;6220405;23;20004;-77
2023/01/24 11:05:56;;;;;;;15.15;8.38;;;4.30;99.90;;;;;;6218735;23;20001;-77
2023/01/24 11:08:36;;;;;;;16.60;8.73;;;4.30;99.90;;;;;;6220455;23;20007;-78
2023/01/24 11:11:03;;;;;;;15.35;8.80;;;4.30;99.90;;;;;;6218796;23;20453;-73
2023/01/24 11:13:37;;;;;;;17.73;9.05;;;4.30;99.90;;;;;;6220750;23;20307;-73
2023/01/24 11:16:41;;;;;;;17.23;9.43;;;4.40;99.90;;;;;;6220216;23;20008;-73
2023/01/24 11:19:30;;;;;;;15.93;8.60;;;4.40;99.90;;;;;;6220902;23;20001;-74
2023/01/24 11:21:59;;;;;;;15.40;8.38;;;4.50;99.90;;;;;;6218596;23;20043;-74
2023/01/24 11:24:25;;;;;;;16.63;8.82;;;4.50;99.90;;;;;;6219902;23;20005;-73
2023/01/24 11:27:04;;;;;;;14.82;8.38;;;4.60;99.90;;;;;;6218711;23;20000;-74
2023/01/24 11:29:34;;;;;;;16.90;8.43;;;4.70;99.90;;;;;;6218335;23;20517;-74
2023/01/24 11:32:21;;;;;;;15.88;8.55;;;4.80;99.90;;;;;;6217603;23;20008;-74
2023/01/24 11:34:57;;;;;;;15.50;9.05;;;4.80;99.90;;;;;;6219540;23;20076;-74
2023/01/24 11:37:45;;;;;;;17.85;8.60;;;4.70;99.90;;;;;;6219913;23;20022;-74
2023/01/24 11:40:56;;;;;;;16.90;9.32;;;4.70;99.90;;;;;;6220128;23;20430;-74
2023/01/24 11:43:48;;;;;;;13.65;8.35;;;4.70;99.90;;;;;;6195468;23;20032;-73
2023/01/24 11:46:13;;;;;;;14.27;8.27;;;4.80;99.90;;;;;;6218041;23;20011;-76
2023/01/24 11:48:42;;;;;;;14.73;8.00;;;4.80;99.90;;;;;;6220218;23;20338;-75
2023/01/24 11:51:41;;;;;;;17.02;8.93;;;4.80;99.90;;;;;;6218842;23;20036;-75
2023/01/24 11:54:27;;;;;;;16.38;8.77;;;4.80;99.90;;;;;;6220404;23;20011;-77
2023/01/24 11:57:04;;;;;;;15.27;8.63;;;4.80;99.90;;;;;;6219545;23;20078;-75
2023/01/24 11:59:58;;;;;;;14.52;7.95;;;4.80;99.90;;;;;;6220199;23;20444;-74
2023/01/24 12:02:46;;;;;;;15.38;7.95;;;4.80;99.90;;;;;;6220526;23;20434;-76
2023/01/24 12:05:52;;;;;;;16.25;9.00;;;4.90;99.90;;;;;;6222270;23;20001;-75
2023/01/24 12:08:37;;;;;;;14.13;7.90;;;4.90;99.90;;;;;;6222030;23;20004;-75
2023/01/24 12:11:20;;;;;;;15.25;8.18;;;4.90;99.90;;;;;;6218834;23;20008;-76
2023/01/24 12:14:16;;;;;;;15.15;8.05;;;5.00;99.90;;;;;;6222047;23;20024;-75
2023/01/24 12:17:10;;;;;;;15.90;9.20;;;5.10;99.90;;;;;;6221781;23;20004;-76
2023/01/24 12:20:04;;;;;;;15.73;8.48;;;5.20;99.90;;;;;;6220233;23;20349;-72
2023/01/24 12:22:31;;;;;;;14.88;8.25;;;5.20;99.90;;;;;;6220122;23;20001;-75
2023/01/24 12:25:23;;;;;;;16.40;9.15;;;5.10;99.90;;;;;;6220511;23;20023;-74
2023/01/24 12:27:51;;;;;;;15.05;8.20;;;5.00;99.90;;;;;;6221709;23;20001;-74
2023/01/24 12:30:38;;;;;;;16.48;8.82;;;5.00;99.90;;;;;;6220536;23;20047;-75
2023/01/24 12:33:21;;;;;;;16.38;9.45;;;5.00;99.90;;;;;;6221609;23;20007;-75
2023/01/24 12:35:52;;;;;;;15.63;8.30;;;5.00;99.90;;;;;;6218943;23;20063;-77
2023/01/24 12:38:20;;;;;;;18.77;9.65;;;5.00;99.90;;;;;;6221386;23;20004;-77
2023/01/24 12:40:51;;;;;;;15.38;8.27;;;5.00;99.90;;;;;;6221609;23;20448;-77
2023/01/24 12:43:30;;;;;;;15.70;9.00;;;5.00;99.90;;;;;;6221041;23;20398;-78
2023/01/24 12:46:01;;;;;;;18.05;10.15;;;5.10;99.90;;;;;;6219486;23;20024;-77
2023/01/24 12:48:48;;;;;;;16.00;8.07;;;5.10;99.90;;;;;;6221462;23;20001;-77
2023/01/24 12:51:17;;;;;;;14.70;8.20;;;5.10;99.90;;;;;;6221215;23;20015;-76
2023/01/24 12:53:58;;;;;;;14.73;8.00;;;5.10;99.90;;;;;;6221101;23;20437;-76
2023/01/24 12:56:48;;;;;;;16.75;8.68;;;5.20;99.90;;;;;;6220991;23;20449;-76
2023/01/24 12:59:19;;;;;;;15.75;8.80;;;5.20;99.90;;;;;;6209711;23;20013;-76
2023/01/24 13:01:56;;;;;;;15.65;9.00;;;5.10;99.90;;;;;;6220609;23;20083;-76
2023/01/24 13:04:28;;;;;;;14.95;7.93;;;5.10;99.90;;;;;;6218866;23;20430;-75
2023/01/24 13:07:02;;;;;;;16.05;8.90;;;5.10;99.90;;;;;;6221228;23;20058;-75
2023/01/24 13:09:59;;;;;;;13.63;7.97;;;5.10;99.90;;;;;;6221164;23;20000;-76
2023/01/24 13:12:27;;;;;;;15.68;7.78;;;5.10;99.90;;;;;;6220969;23;20039;-76
2023/01/24 13:14:55;;;;;;;13.95;7.68;;;5.20;99.90;;;;;;6220683;23;20007;-76
2023/01/24 13:17:42;;;;;;;14.77;7.80;;;5.20;99.90;;;;;;6219174;23;20032;-75
2023/01/24 13:20:35;;;;;;;14.38;8.23;;;5.20;99.90;;;;;;6221141;23;19997;-76
2023/01/24 13:23:16;;;;;;;14.37;7.90;;;5.30;99.90;;;;;;6220256;23;20048;-73
2023/01/24 13:26:15;;;;;;;14.00;8.40;;;5.30;99.90;;;;;;6221416;23;19996;-74
2023/01/24 13:29:12;;;;;;;14.32;7.25;;;5.20;99.90;;;;;;6219301;23;20023;-75
2023/01/24 13:31:58;;;;;;;11.82;7.13;;;5.30;99.90;;;;;;6220920;23;20035;-74
2023/01/24 13:34:30;;;;;;;13.82;8.02;;;5.30;99.90;;;;;;6220805;23;20004;-75
2023/01/24 13:36:56;;;;;;;14.10;7.50;;;5.30;99.90;;;;;;6220516;23;20080;-76
2023/01/24 13:39:34;;;;;;;14.07;7.70;;;5.30;99.90;;;;;;6221028;23;20493;-76
2023/01/24 13:42:28;;;;;;;15.07;8.05;;;5.30;99.90;;;;;;6221147;23;20000;-77
2023/01/24 13:44:53;;;;;;;13.60;7.75;;;5.30;99.90;;;;;;6220460;23;20051;-76
2023/01/24 13:47:24;;;;;;;13.55;7.63;;;5.30;99.90;;;;;;6220749;23;20000;-77
2023/01/24 13:49:49;;;;;;;13.15;7.38;;;5.30;99.90;;;;;;6221195;23;20004;-76